createdAt,value
2018-04-06T00:00:21.138Z,5.57
2018-04-06T00:02:48.551Z,5.75
2018-04-06T00:05:15.978Z,5.95
2018-04-06T00:07:43.391Z,6.55
2018-04-06T00:10:11.024Z,6.47
2018-04-06T00:12:38.447Z,6.10
2018-04-06T00:15:05.862Z,6.07
2018-04-06T00:17:33.287Z,5.75
2018-04-06T00:20:00.704Z,6.55
2018-04-06T00:22:28.119Z,6.32
2018-04-06T00:24:55.530Z,6.65
2018-04-06T00:27:22.961Z,6.90
2018-04-06T00:29:50.379Z,7.05
2018-04-06T00:32:17.823Z,7.07
2018-04-06T00:34:45.230Z,7.10
2018-04-06T00:37:13.444Z,6.72
2018-04-06T00:39:40.855Z,7.70
2018-04-06T00:42:08.275Z,6.70
2018-04-06T00:44:35.693Z,6.80
2018-04-06T00:47:03.126Z,6.62
2018-04-06T00:49:31.307Z,6.95
2018-04-06T00:51:58.731Z,7.00
2018-04-06T00:54:26.151Z,6.65
2018-04-06T00:56:53.567Z,7.50
2018-04-06T00:59:21.748Z,7.15
2018-04-06T01:01:49.179Z,6.00
2018-04-06T01:04:16.610Z,6.47
2018-04-06T01:06:44.015Z,5.62
2018-04-06T01:09:11.439Z,6.47
2018-04-06T01:11:38.959Z,6.00
2018-04-06T01:14:06.379Z,5.07
2018-04-06T01:16:34.570Z,6.90
2018-04-06T01:19:01.989Z,6.00
2018-04-06T01:21:29.402Z,6.32
2018-04-06T01:23:56.833Z,7.20
2018-04-06T01:26:24.252Z,6.03
2018-04-06T01:28:51.680Z,6.03
2018-04-06T01:31:19.089Z,6.95
2018-04-06T01:33:46.687Z,5.32
2018-04-06T01:36:14.108Z,5.97
2018-04-06T01:38:41.695Z,5.62
2018-04-06T01:41:09.115Z,5.30
2018-04-06T01:43:36.534Z,5.68
2018-04-06T01:46:03.944Z,5.60
2018-04-06T01:48:31.425Z,5.78
2018-04-06T01:50:58.876Z,6.47
2018-04-06T01:53:26.266Z,5.87
2018-04-06T01:55:53.683Z,6.25
2018-04-06T01:58:21.108Z,5.80
2018-04-06T02:00:48.528Z,5.25
2018-04-06T02:03:15.939Z,5.72
2018-04-06T02:05:43.354Z,6.07
2018-04-06T02:08:10.783Z,5.28
2018-04-06T02:10:38.203Z,5.78
2018-04-06T02:13:05.624Z,4.82
2018-04-06T02:15:33.048Z,5.45
2018-04-06T02:18:00.463Z,5.57
2018-04-06T02:20:27.883Z,4.55
2018-04-06T02:22:55.302Z,4.78
2018-04-06T02:25:22.723Z,4.75
2018-04-06T02:27:50.211Z,4.60
2018-04-06T02:30:17.645Z,4.47
2018-04-06T02:32:45.122Z,3.95
2018-04-06T02:35:12.543Z,4.28
2018-04-06T02:37:39.959Z,4.85
2018-04-06T02:40:07.375Z,3.65
2018-04-06T02:42:34.804Z,3.30
2018-04-06T02:45:02.979Z,3.67
2018-04-06T02:47:30.408Z,4.28
2018-04-06T02:49:57.827Z,4.93
2018-04-06T02:52:25.247Z,3.92
2018-04-06T02:54:53.426Z,4.85
2018-04-06T02:57:20.847Z,4.50
2018-04-06T02:59:49.023Z,3.85
2018-04-06T03:02:16.447Z,4.37
2018-04-06T03:04:43.894Z,4.00
2018-04-06T03:07:11.314Z,4.35
2018-04-06T03:09:38.731Z,3.67
2018-04-06T03:12:06.160Z,3.62
2018-04-06T03:14:33.567Z,5.65
2018-04-06T03:17:01.769Z,4.60
2018-04-06T03:19:29.187Z,4.87
2018-04-06T03:21:56.603Z,3.97
2018-04-06T03:24:24.022Z,4.12
2018-04-06T03:26:52.206Z,4.53
2018-04-06T03:29:19.634Z,6.05
2018-04-06T03:31:47.040Z,3.67
2018-04-06T03:34:14.540Z,5.85
2018-04-06T03:36:42.060Z,4.97
2018-04-06T03:39:09.501Z,5.15
2018-04-06T03:41:36.905Z,4.28
2018-04-06T03:44:04.336Z,5.07
2018-04-06T03:46:31.747Z,5.55
2018-04-06T03:48:59.950Z,5.28
2018-04-06T03:51:27.371Z,4.57
2018-04-06T03:53:54.784Z,5.35
2018-04-06T03:56:22.285Z,5.10
2018-04-06T03:58:49.699Z,4.03
2018-04-06T04:01:17.124Z,3.92
2018-04-06T04:03:44.597Z,3.67
2018-04-06T04:06:12.011Z,4.50
2018-04-06T04:08:39.604Z,5.28
2018-04-06T04:11:07.023Z,4.90
2018-04-06T04:13:34.440Z,5.20
2018-04-06T04:16:01.867Z,5.37
2018-04-06T04:18:29.283Z,4.95
2018-04-06T04:20:57.482Z,4.75
2018-04-06T04:23:24.890Z,4.28
2018-04-06T04:25:52.304Z,5.07
2018-04-06T04:28:19.711Z,4.75
2018-04-06T04:30:47.910Z,4.70
2018-04-06T04:33:15.320Z,4.80
2018-04-06T04:35:42.730Z,5.37
2018-04-06T04:38:10.151Z,4.60
2018-04-06T04:40:38.340Z,5.97
2018-04-06T04:43:05.759Z,5.03
2018-04-06T04:45:33.223Z,6.00
2018-04-06T04:48:01.411Z,5.60
2018-04-06T04:50:28.846Z,6.55
2018-04-06T04:52:56.269Z,7.85
2018-04-06T04:55:23.984Z,8.00
2018-04-06T04:57:51.407Z,8.43
2018-04-06T05:00:18.831Z,8.85
2018-04-06T05:02:46.251Z,8.23
2018-04-06T05:05:14.480Z,7.68
2018-04-06T05:07:41.905Z,8.70
2018-04-06T05:10:09.316Z,8.10
2018-04-06T05:12:36.739Z,7.37
2018-04-06T05:15:04.159Z,7.30
2018-04-06T05:17:32.380Z,8.15
2018-04-06T05:19:59.827Z,7.47
2018-04-06T05:22:27.264Z,7.87
2018-04-06T05:24:54.682Z,7.07
2018-04-06T05:27:22.104Z,7.60
2018-04-06T05:29:49.522Z,7.18
2018-04-06T05:32:16.935Z,7.72
2018-04-06T05:34:44.363Z,8.80
2018-04-06T05:37:11.808Z,9.13
2018-04-06T05:39:39.234Z,8.15
2018-04-06T05:42:06.935Z,7.85
2018-04-06T05:44:34.364Z,7.97
2018-04-06T05:47:01.788Z,9.20
2018-04-06T05:49:29.213Z,8.63
2018-04-06T05:51:56.666Z,8.68
2018-04-06T05:54:24.099Z,10.93
2018-04-06T05:56:51.827Z,10.80
2018-04-06T05:59:20.045Z,10.85
2018-04-06T06:01:47.454Z,11.50
2018-04-06T06:04:14.883Z,10.68
2018-04-06T06:06:42.308Z,10.40
2018-04-06T06:09:09.739Z,11.35
2018-04-06T06:11:37.948Z,11.82
2018-04-06T06:14:05.373Z,11.50
2018-04-06T06:16:32.808Z,11.70
2018-04-06T06:19:00.228Z,10.43
2018-04-06T06:21:27.651Z,11.82
2018-04-06T06:23:55.071Z,11.27
2018-04-06T06:26:23.271Z,12.77
2018-04-06T06:28:50.687Z,11.07
2018-04-06T06:31:18.127Z,12.75
2018-04-06T06:33:45.559Z,11.20
2018-04-06T06:36:12.995Z,12.52
2018-04-06T06:38:40.417Z,12.90
2018-04-06T06:41:08.033Z,11.50
2018-04-06T06:43:35.452Z,12.65
2018-04-06T06:46:02.875Z,12.05
2018-04-06T06:48:31.333Z,12.43
2018-04-06T06:50:58.756Z,13.15
2018-04-06T06:53:26.239Z,11.75
2018-04-06T06:55:53.674Z,13.57
2018-04-06T06:58:21.115Z,12.98
2018-04-06T07:00:48.536Z,13.10
2018-04-06T07:03:16.744Z,12.85
2018-04-06T07:05:44.175Z,12.75
2018-04-06T07:08:11.617Z,13.35
2018-04-06T07:10:39.050Z,12.57
2018-04-06T07:13:06.479Z,12.02
2018-04-06T07:15:33.915Z,12.30
2018-04-06T07:18:01.368Z,11.68
2018-04-06T07:20:28.798Z,10.90
2018-04-06T07:22:56.223Z,10.07
2018-04-06T07:25:23.659Z,13.00
2018-04-06T07:27:51.132Z,10.82
2018-04-06T07:30:18.571Z,12.60
2018-04-06T07:32:45.995Z,11.88
2018-04-06T07:35:14.194Z,11.65
2018-04-06T07:37:41.624Z,12.32
2018-04-06T07:40:09.059Z,11.38
2018-04-06T07:42:36.594Z,10.60
2018-04-06T07:45:04.021Z,12.55
2018-04-06T07:47:31.451Z,12.52
2018-04-06T07:49:58.966Z,9.37
2018-04-06T07:52:26.390Z,9.65
2018-04-06T07:54:53.850Z,10.07
2018-04-06T07:57:21.272Z,9.48
2018-04-06T07:59:48.689Z,7.13
2018-04-06T08:02:16.135Z,6.10
2018-04-06T08:04:43.591Z,4.97
2018-04-06T08:07:11.027Z,4.33
2018-04-06T08:09:38.481Z,3.70
2018-04-06T08:12:05.904Z,3.53
2018-04-06T08:14:33.387Z,3.53
2018-04-06T08:17:01.579Z,3.40
2018-04-06T08:19:28.986Z,3.40
2018-04-06T08:21:56.407Z,3.70
2018-04-06T08:24:23.963Z,3.00
2018-04-06T08:26:51.417Z,3.77
2018-04-06T08:29:18.838Z,3.13
2018-04-06T08:31:46.264Z,3.57
2018-04-06T08:34:13.687Z,3.33
2018-04-06T08:36:41.160Z,3.20
2018-04-06T08:39:08.606Z,3.50
2018-04-06T08:41:36.163Z,3.77
2018-04-06T08:44:03.620Z,3.50
2018-04-06T08:46:31.051Z,3.67
2018-04-06T08:48:58.483Z,3.33
2018-04-06T08:51:25.925Z,3.53
2018-04-06T08:53:53.347Z,3.37
2018-04-06T08:56:20.779Z,3.57
2018-04-06T08:58:48.210Z,3.43
2018-04-06T09:01:16.584Z,3.87
2018-04-06T09:03:44.979Z,3.90
2018-04-06T09:06:12.415Z,3.70
2018-04-06T09:08:40.862Z,4.60
2018-04-06T09:11:08.399Z,4.00
2018-04-06T09:13:35.885Z,3.33
2018-04-06T09:16:03.312Z,4.47
2018-04-06T09:18:30.743Z,4.57
2018-04-06T09:20:58.164Z,4.40
2018-04-06T09:23:25.602Z,3.80
2018-04-06T09:25:53.024Z,4.40
2018-04-06T09:28:20.454Z,3.93
2018-04-06T09:30:47.884Z,3.20
2018-04-06T09:33:15.343Z,4.57
2018-04-06T09:35:42.959Z,3.57
2018-04-06T09:38:10.392Z,4.10
2018-04-06T09:40:37.812Z,4.80
2018-04-06T09:43:05.236Z,4.13
2018-04-06T09:45:32.684Z,4.27
2018-04-06T09:48:00.250Z,4.13
2018-04-06T09:50:27.723Z,4.30
2018-04-06T09:52:55.412Z,3.80
2018-04-06T09:55:22.828Z,4.00
2018-04-06T09:57:50.270Z,3.37
2018-04-06T10:00:23.487Z,3.60
2018-04-06T10:02:50.953Z,3.53
2018-04-06T10:05:18.342Z,3.93
2018-04-06T10:07:45.911Z,3.70
2018-04-06T10:10:13.363Z,3.90
2018-04-06T10:12:40.947Z,4.20
2018-04-06T10:15:08.370Z,3.60
2018-04-06T10:17:35.799Z,3.83
2018-04-06T10:20:03.217Z,3.90
2018-04-06T10:22:30.643Z,4.47
2018-04-06T10:24:58.264Z,4.53
2018-04-06T10:27:25.664Z,4.90
2018-04-06T10:29:53.081Z,5.27
2018-04-06T10:32:20.516Z,4.27
2018-04-06T10:34:47.935Z,4.70
2018-04-06T10:37:15.432Z,4.50
2018-04-06T10:39:42.879Z,4.33
2018-04-06T10:42:10.314Z,4.73
2018-04-06T10:44:37.892Z,4.07
2018-04-06T10:47:06.099Z,3.70
2018-04-06T10:49:34.388Z,4.37
2018-04-06T10:52:01.824Z,3.67
2018-04-06T10:54:30.754Z,3.23
2018-04-06T10:56:58.179Z,4.80
2018-04-06T10:59:25.599Z,3.60
2018-04-06T11:01:53.047Z,2.70
2018-04-06T11:04:20.578Z,3.00
2018-04-06T11:06:48.061Z,4.00
2018-04-06T11:09:15.487Z,3.27
2018-04-06T11:11:42.905Z,3.80
2018-04-06T11:14:10.327Z,3.30
2018-04-06T11:16:37.735Z,3.27
2018-04-06T11:19:05.927Z,3.57
2018-04-06T11:21:33.371Z,4.30
2018-04-06T11:24:00.791Z,3.23
2018-04-06T11:26:28.211Z,3.90
2018-04-06T11:28:55.634Z,3.97
2018-04-06T11:31:24.027Z,3.07
2018-04-06T11:33:51.483Z,3.17
2018-04-06T11:36:18.900Z,3.57
2018-04-06T11:38:46.323Z,3.30
2018-04-06T11:41:13.740Z,3.40
2018-04-06T11:43:41.156Z,3.30
2018-04-06T11:46:08.576Z,3.53
2018-04-06T11:48:36.038Z,3.00
2018-04-06T11:51:03.497Z,2.60
2018-04-06T11:53:30.895Z,2.90
2018-04-06T11:55:58.314Z,3.37
2018-04-06T11:58:25.732Z,3.17
2018-04-06T12:00:54.115Z,3.10
2018-04-06T12:03:21.697Z,3.10
2018-04-06T12:05:49.110Z,3.07
2018-04-06T12:08:16.539Z,3.43
2018-04-06T12:10:43.975Z,4.00
2018-04-06T12:13:11.392Z,3.10
2018-04-06T12:15:39.579Z,3.30
2018-04-06T12:18:07.008Z,3.00
2018-04-06T12:20:34.430Z,3.67
2018-04-06T12:23:01.845Z,2.50
2018-04-06T12:25:29.264Z,3.80
2018-04-06T12:27:56.875Z,3.17
2018-04-06T12:30:24.316Z,3.03
2018-04-06T12:32:51.743Z,3.83
2018-04-06T12:35:19.234Z,3.53
2018-04-06T12:37:46.662Z,3.07
2018-04-06T12:40:14.075Z,4.07
2018-04-06T12:42:41.519Z,2.77
2018-04-06T12:45:08.927Z,3.60
2018-04-06T12:47:37.135Z,3.10
2018-04-06T12:50:04.556Z,2.93
2018-04-06T12:52:31.975Z,2.83
2018-04-06T12:54:59.505Z,3.30
2018-04-06T12:57:26.938Z,3.00
2018-04-06T12:59:54.352Z,2.77
2018-04-06T13:02:21.774Z,3.27
2018-04-06T13:04:49.216Z,4.20
2018-04-06T13:07:16.628Z,4.43
2018-04-06T13:09:44.051Z,4.30
2018-04-06T13:12:11.495Z,3.43
2018-04-06T13:14:39.158Z,4.70
2018-04-06T13:17:06.575Z,4.40
2018-04-06T13:19:34.005Z,4.40
2018-04-06T13:22:01.411Z,3.65
2018-04-06T13:24:28.830Z,4.90
2018-04-06T13:26:56.235Z,4.93
2018-04-06T13:29:23.668Z,4.60
2018-04-06T13:31:51.079Z,4.87
2018-04-06T13:34:20.022Z,4.43
2018-04-06T13:36:47.435Z,5.50
2018-04-06T13:39:14.880Z,5.03
2018-04-06T13:41:42.307Z,4.47
2018-04-06T13:44:09.754Z,5.07
2018-04-06T13:46:37.184Z,5.40
2018-04-06T13:49:04.578Z,5.00
2018-04-06T13:51:31.999Z,5.10
2018-04-06T13:53:59.427Z,5.60
2018-04-06T13:56:26.864Z,4.97
2018-04-06T13:58:54.288Z,5.10
2018-04-06T14:01:21.756Z,4.40
2018-04-06T14:03:49.188Z,4.60
2018-04-06T14:06:17.359Z,4.10
2018-04-06T14:08:44.784Z,4.13
2018-04-06T14:11:13.720Z,4.17
2018-04-06T14:13:41.149Z,4.20
2018-04-06T14:16:09.344Z,4.50
2018-04-06T14:18:36.755Z,4.10
2018-04-06T14:21:04.173Z,3.77
2018-04-06T14:23:31.614Z,4.17
2018-04-06T14:25:59.023Z,4.23
2018-04-06T14:28:26.442Z,4.63
2018-04-06T14:30:53.908Z,4.37
2018-04-06T14:33:21.331Z,5.50
2018-04-06T14:35:48.751Z,5.20
2018-04-06T14:38:16.943Z,4.97
2018-04-06T14:40:45.253Z,6.03
2018-04-06T14:43:12.680Z,4.27
2018-04-06T14:45:40.092Z,4.90
2018-04-06T14:48:07.519Z,5.57
2018-04-06T14:50:34.948Z,4.63
2018-04-06T14:53:02.380Z,3.87
2018-04-06T14:55:29.939Z,4.20
2018-04-06T14:57:58.132Z,4.03
2018-04-06T15:00:25.543Z,4.07
2018-04-06T15:02:52.997Z,3.57
2018-04-06T15:05:20.437Z,4.87
2018-04-06T15:07:47.855Z,4.90
2018-04-06T15:10:15.281Z,4.40
2018-04-06T15:12:42.702Z,6.10
2018-04-06T15:15:10.162Z,4.30
2018-04-06T15:17:37.586Z,5.07
2018-04-06T15:20:05.183Z,5.93
2018-04-06T15:22:32.631Z,5.20
2018-04-06T15:25:00.085Z,4.77
2018-04-06T15:27:27.519Z,4.50
2018-04-06T15:29:54.947Z,5.87
2018-04-06T15:32:23.132Z,5.10
2018-04-06T15:34:50.551Z,5.87
2018-04-06T15:37:17.983Z,5.30
2018-04-06T15:39:45.388Z,5.10
2018-04-06T15:42:13.583Z,4.87
2018-04-06T15:44:41.010Z,4.50
2018-04-06T15:47:09.200Z,4.70
2018-04-06T15:49:36.647Z,4.87
2018-04-06T15:52:04.041Z,5.40
2018-04-06T15:54:31.454Z,4.20
2018-04-06T15:56:58.892Z,4.57
2018-04-06T15:59:26.300Z,5.07
2018-04-06T16:01:53.723Z,5.23
2018-04-06T16:04:21.939Z,5.90
2018-04-06T16:06:49.368Z,5.77
2018-04-06T16:09:16.784Z,5.50
2018-04-06T16:11:44.228Z,5.00
2018-04-06T16:14:11.646Z,5.00
2018-04-06T16:16:39.956Z,4.40
2018-04-06T16:19:07.403Z,4.13
2018-04-06T16:21:34.825Z,4.90
2018-04-06T16:24:02.269Z,4.53
2018-04-06T16:26:29.686Z,5.63
2018-04-06T16:28:57.114Z,5.00
2018-04-06T16:31:24.522Z,4.73
2018-04-06T16:33:52.763Z,5.87
2018-04-06T16:36:20.217Z,5.40
2018-04-06T16:38:47.631Z,5.07
2018-04-06T16:41:15.055Z,4.00
2018-04-06T16:43:42.480Z,5.80
2018-04-06T16:46:09.895Z,5.83
2018-04-06T16:48:37.323Z,5.77
2018-04-06T16:51:04.843Z,6.03
2018-04-06T16:53:32.276Z,4.83
2018-04-06T16:56:00.096Z,4.67
2018-04-06T16:58:27.523Z,5.57
2018-04-06T17:00:54.936Z,4.63
2018-04-06T17:03:22.342Z,5.67
2018-04-06T17:05:50.082Z,4.47
2018-04-06T17:08:18.270Z,4.43
2018-04-06T17:10:45.683Z,4.83
2018-04-06T17:13:13.165Z,4.20
2018-04-06T17:15:40.530Z,4.50
2018-04-06T17:18:08.047Z,5.00
2018-04-06T17:20:35.488Z,4.93
2018-04-06T17:23:02.899Z,4.70
2018-04-06T17:25:30.521Z,4.80
2018-04-06T17:27:57.932Z,5.30
2018-04-06T17:30:25.386Z,4.77
2018-04-06T17:32:52.815Z,5.30
2018-04-06T17:35:20.230Z,4.63
2018-04-06T17:37:47.644Z,5.10
2018-04-06T17:40:15.189Z,5.30
2018-04-06T17:42:42.600Z,4.27
2018-04-06T17:45:10.148Z,5.70
2018-04-06T17:47:37.664Z,5.23
2018-04-06T17:50:05.205Z,4.50
2018-04-06T17:52:32.780Z,5.57
2018-04-06T17:55:00.194Z,4.50
2018-04-06T17:57:27.606Z,4.60
2018-04-06T17:59:55.045Z,4.20
2018-04-06T18:02:22.620Z,3.83
2018-04-06T18:04:51.021Z,4.60
2018-04-06T18:07:18.446Z,4.67
2018-04-06T18:09:45.884Z,5.50
2018-04-06T18:12:13.306Z,4.73
2018-04-06T18:14:41.479Z,5.23
2018-04-06T18:17:09.671Z,4.60
2018-04-06T18:19:37.252Z,4.50
2018-04-06T18:22:04.675Z,4.37
2018-04-06T18:24:32.088Z,4.97
2018-04-06T18:26:59.512Z,5.47
2018-04-06T18:29:26.980Z,4.50
2018-04-06T18:31:54.398Z,4.60
2018-04-06T18:34:21.823Z,4.53
2018-04-06T18:36:49.260Z,5.30
2018-04-06T18:39:16.684Z,5.57
2018-04-06T18:41:44.867Z,5.53
2018-04-06T18:44:12.290Z,5.40
2018-04-06T18:46:39.775Z,4.90
2018-04-06T18:49:07.212Z,4.87
2018-04-06T18:51:34.636Z,4.77
2018-04-06T18:54:02.154Z,4.40
2018-04-06T18:56:29.563Z,4.20
2018-04-06T18:58:57.868Z,5.17
2018-04-06T19:01:25.535Z,4.40
2018-04-06T19:03:52.947Z,4.63
2018-04-06T19:06:20.368Z,5.03
2018-04-06T19:08:47.803Z,5.20
2018-04-06T19:11:15.228Z,5.30
2018-04-06T19:13:43.431Z,4.97
2018-04-06T19:16:10.855Z,5.53
2018-04-06T19:18:38.267Z,4.77
2018-04-06T19:21:05.700Z,5.73
2018-04-06T19:23:33.102Z,5.60
2018-04-06T19:26:01.296Z,5.60
2018-04-06T19:28:28.704Z,4.97
2018-04-06T19:30:56.208Z,5.20
2018-04-06T19:33:23.694Z,5.40
2018-04-06T19:35:51.157Z,5.57
2018-04-06T19:38:18.577Z,5.00
2018-04-06T19:40:46.057Z,5.60
2018-04-06T19:43:13.463Z,4.77
2018-04-06T19:45:40.882Z,5.10
2018-04-06T19:48:08.427Z,5.90
2018-04-06T19:50:35.852Z,5.33
2018-04-06T19:53:03.350Z,5.27
2018-04-06T19:55:30.795Z,5.80
2018-04-06T19:57:58.206Z,5.93
2018-04-06T20:00:25.627Z,4.90
2018-04-06T20:02:53.186Z,6.03
2018-04-06T20:05:20.594Z,5.47
2018-04-06T20:07:48.027Z,5.00
2018-04-06T20:10:15.534Z,4.77
2018-04-06T20:12:42.946Z,5.33
2018-04-06T20:15:10.451Z,5.73
2018-04-06T20:17:37.883Z,4.70
2018-04-06T20:20:05.294Z,5.07
2018-04-06T20:22:32.728Z,5.43
2018-04-06T20:25:00.143Z,6.40
2018-04-06T20:27:27.571Z,4.90
2018-04-06T20:29:54.987Z,5.37
2018-04-06T20:32:22.524Z,5.80
2018-04-06T20:34:49.998Z,5.63
2018-04-06T20:37:17.419Z,6.13
2018-04-06T20:39:44.844Z,6.23
2018-04-06T20:42:12.256Z,6.10
2018-04-06T20:44:39.680Z,5.70
2018-04-06T20:47:07.248Z,6.00
2018-04-06T20:49:34.672Z,5.27
2018-04-06T20:52:02.282Z,5.50
2018-04-06T20:54:29.748Z,5.73
2018-04-06T20:56:57.168Z,5.23
2018-04-06T20:59:24.593Z,5.60
2018-04-06T21:01:52.008Z,5.67
2018-04-06T21:04:19.432Z,5.80
2018-04-06T21:06:47.618Z,5.80
2018-04-06T21:09:15.027Z,6.00
2018-04-06T21:11:42.673Z,5.53
2018-04-06T21:14:10.089Z,5.87
2018-04-06T21:16:37.516Z,7.20
2018-04-06T21:19:04.952Z,6.60
2018-04-06T21:21:32.363Z,6.20
2018-04-06T21:23:59.832Z,6.40
2018-04-06T21:26:27.261Z,6.60
2018-04-06T21:28:54.679Z,7.17
2018-04-06T21:31:22.108Z,8.00
2018-04-06T21:33:49.532Z,9.93
2018-04-06T21:36:16.954Z,8.57
2018-04-06T21:38:44.571Z,7.90
2018-04-06T21:41:11.994Z,9.40
2018-04-06T21:43:39.428Z,7.80
2018-04-06T21:46:06.863Z,9.30
2018-04-06T21:48:34.283Z,8.00
2018-04-06T21:51:01.710Z,7.20
2018-04-06T21:53:29.897Z,7.47
2018-04-06T21:55:57.322Z,9.20
2018-04-06T21:58:24.839Z,8.60
2018-04-06T22:00:52.282Z,8.00
2018-04-06T22:03:19.684Z,8.20
2018-04-06T22:05:47.113Z,7.90
2018-04-06T22:08:14.515Z,8.90
2018-04-06T22:10:42.716Z,8.40
2018-04-06T22:13:10.134Z,8.77
2018-04-06T22:15:37.564Z,9.00
2018-04-06T22:18:04.975Z,8.67
2018-04-06T22:20:32.419Z,7.97
2018-04-06T22:23:00.594Z,9.40
2018-04-06T22:25:28.011Z,8.33
2018-04-06T22:27:55.545Z,9.40
2018-04-06T22:30:23.004Z,9.97
2018-04-06T22:32:50.417Z,8.90
2018-04-06T22:35:17.904Z,8.73
2018-04-06T22:37:45.339Z,8.80
2018-04-06T22:40:12.756Z,8.57
2018-04-06T22:42:40.191Z,7.63
2018-04-06T22:45:07.603Z,8.37
2018-04-06T22:47:35.024Z,7.20
2018-04-06T22:50:02.443Z,7.03
2018-04-06T22:52:29.866Z,8.23
2018-04-06T22:54:57.419Z,7.63
2018-04-06T22:57:25.632Z,6.90
2018-04-06T22:59:53.052Z,8.00
2018-04-06T23:02:20.481Z,7.13
2018-04-06T23:04:47.908Z,7.37
2018-04-06T23:07:15.349Z,7.83
2018-04-06T23:09:42.768Z,7.10
2018-04-06T23:12:10.950Z,7.30
2018-04-06T23:14:38.382Z,8.37
2018-04-06T23:17:05.804Z,8.90
2018-04-06T23:19:33.263Z,7.50
2018-04-06T23:22:00.740Z,6.90
2018-04-06T23:24:28.171Z,7.83
2018-04-06T23:26:55.588Z,8.00
2018-04-06T23:29:23.074Z,7.33
2018-04-06T23:31:50.563Z,7.80
2018-04-06T23:34:17.996Z,7.20
2018-04-06T23:36:45.413Z,7.73
2018-04-06T23:39:13.826Z,7.70
2018-04-06T23:41:41.249Z,7.60
2018-04-06T23:44:08.670Z,7.77
2018-04-06T23:46:36.284Z,7.83
2018-04-06T23:49:03.711Z,7.17
2018-04-06T23:51:31.118Z,6.83
2018-04-06T23:53:58.534Z,7.77
2018-04-06T23:56:25.951Z,7.20
2018-04-06T23:58:53.368Z,6.90
